createdAt,value
2018-03-17T00:00:05.306Z,19.00
2018-03-17T00:02:33.638Z,20.25
2018-03-17T00:05:01.947Z,22.75
2018-03-17T00:07:30.283Z,19.30
2018-03-17T00:09:58.603Z,18.72
2018-03-17T00:12:26.934Z,18.62
2018-03-17T00:14:55.246Z,18.50
2018-03-17T00:17:23.574Z,13.10
2018-03-17T00:19:51.887Z,15.55
2018-03-17T00:22:20.219Z,18.17
2018-03-17T00:24:48.548Z,15.12
2018-03-17T00:27:16.884Z,14.93
2018-03-17T00:29:45.195Z,13.22
2018-03-17T00:32:13.524Z,16.48
2018-03-17T00:34:41.887Z,15.97
2018-03-17T00:37:10.218Z,15.12
2018-03-17T00:39:38.523Z,14.08
2018-03-17T00:42:06.855Z,9.68
2018-03-17T00:44:35.162Z,11.13
2018-03-17T00:47:03.496Z,10.65
2018-03-17T00:49:31.827Z,12.22
2018-03-17T00:52:00.159Z,11.77
2018-03-17T00:54:28.474Z,10.78
2018-03-17T00:56:56.812Z,10.52
2018-03-17T00:59:25.130Z,11.77
2018-03-17T01:01:53.470Z,12.27
2018-03-17T01:04:21.786Z,10.50
2018-03-17T01:06:50.117Z,10.87
2018-03-17T01:09:18.434Z,10.28
2018-03-17T01:11:46.784Z,13.40
2018-03-17T01:14:15.088Z,11.08
2018-03-17T01:16:43.396Z,10.95
2018-03-17T01:19:11.727Z,10.92
2018-03-17T01:21:40.043Z,10.37
2018-03-17T01:24:08.405Z,11.57
2018-03-17T01:26:36.744Z,11.63
2018-03-17T01:29:05.075Z,10.58
2018-03-17T01:31:33.391Z,10.28
2018-03-17T01:34:01.731Z,11.13
2018-03-17T01:36:30.044Z,11.30
2018-03-17T01:38:58.390Z,11.83
2018-03-17T01:41:26.718Z,10.45
2018-03-17T01:43:55.048Z,10.92
2018-03-17T01:46:23.360Z,9.67
2018-03-17T01:48:51.687Z,10.45
2018-03-17T01:51:19.996Z,10.53
2018-03-17T01:53:48.333Z,9.63
2018-03-17T01:56:16.644Z,8.50
2018-03-17T01:58:44.976Z,7.35
2018-03-17T02:01:13.293Z,7.47
2018-03-17T02:03:41.627Z,6.35
2018-03-17T02:06:09.932Z,7.17
2018-03-17T02:08:38.272Z,7.72
2018-03-17T02:11:06.599Z,7.48
2018-03-17T02:13:34.938Z,8.95
2018-03-17T02:16:03.248Z,8.40
2018-03-17T02:18:31.574Z,7.15
2018-03-17T02:20:59.885Z,9.47
2018-03-17T02:23:28.215Z,9.98
2018-03-17T02:25:56.543Z,9.45
2018-03-17T02:28:24.879Z,10.32
2018-03-17T02:30:53.200Z,12.40
2018-03-17T02:33:21.527Z,9.52
2018-03-17T02:38:16.937Z,11.30
2018-03-17T02:40:45.252Z,10.60
2018-03-17T02:43:13.587Z,11.07
2018-03-17T02:45:41.900Z,10.55
2018-03-17T02:48:10.238Z,10.15
2018-03-17T02:50:38.550Z,11.35
2018-03-17T02:53:06.907Z,13.33
2018-03-17T02:55:35.221Z,13.28
2018-03-17T02:58:03.530Z,13.37
2018-03-17T03:00:31.864Z,13.35
2018-03-17T03:03:00.179Z,16.03
2018-03-17T03:05:28.512Z,15.65
2018-03-17T03:07:56.828Z,15.35
2018-03-17T03:10:25.163Z,17.92
2018-03-17T03:12:53.479Z,16.72
2018-03-17T03:15:21.824Z,16.80
2018-03-17T03:17:50.139Z,15.75
2018-03-17T03:20:18.472Z,17.97
2018-03-17T03:22:46.785Z,18.25
2018-03-17T03:25:15.121Z,20.42
2018-03-17T03:27:43.440Z,15.27
2018-03-17T03:30:11.780Z,17.27
2018-03-17T03:32:39.396Z,20.40
2018-03-17T03:35:07.749Z,18.13
2018-03-17T03:37:36.063Z,21.80
2018-03-17T03:40:04.398Z,20.17
2018-03-17T03:42:32.712Z,20.97
2018-03-17T03:45:01.131Z,20.15
2018-03-17T03:47:29.440Z,21.95
2018-03-17T03:49:57.771Z,20.98
2018-03-17T03:52:26.086Z,17.53
2018-03-17T03:54:54.424Z,20.53
2018-03-17T03:57:22.740Z,19.85
2018-03-17T03:59:51.074Z,18.55
2018-03-17T04:02:19.400Z,16.65
2018-03-17T04:04:47.747Z,18.42
2018-03-17T04:07:16.071Z,18.90
2018-03-17T04:09:44.411Z,17.75
2018-03-17T04:12:12.750Z,19.12
2018-03-17T04:14:41.091Z,18.95
2018-03-17T04:17:09.413Z,17.57
2018-03-17T04:19:37.750Z,20.35
2018-03-17T04:22:06.069Z,18.95
2018-03-17T04:24:34.407Z,17.35
2018-03-17T04:27:02.726Z,19.13
2018-03-17T04:29:31.082Z,18.82
2018-03-17T04:31:59.398Z,17.52
2018-03-17T04:34:27.751Z,20.13
2018-03-17T04:36:56.075Z,19.48
2018-03-17T04:39:24.392Z,18.60
2018-03-17T04:41:52.724Z,20.40
2018-03-17T04:44:21.047Z,20.35
2018-03-17T04:46:49.383Z,21.03
2018-03-17T04:49:17.695Z,23.93
2018-03-17T04:51:46.030Z,20.32
2018-03-17T04:54:14.354Z,21.25
2018-03-17T04:56:42.691Z,17.55
2018-03-17T04:59:11.004Z,18.35
2018-03-17T05:01:39.335Z,17.35
2018-03-17T05:04:07.653Z,19.72
2018-03-17T05:06:35.999Z,19.20
2018-03-17T05:09:04.310Z,19.02
2018-03-17T05:11:32.672Z,17.52
2018-03-17T05:14:00.985Z,21.55
2018-03-17T05:16:29.330Z,18.87
2018-03-17T05:18:57.712Z,21.18
2018-03-17T05:21:26.046Z,22.98
2018-03-17T05:23:54.355Z,20.62
2018-03-17T05:26:22.705Z,22.96
2018-03-17T05:28:51.021Z,27.75
2018-03-17T05:31:19.356Z,25.18
2018-03-17T05:33:47.671Z,26.53
2018-03-17T05:36:16.003Z,22.02
2018-03-17T05:38:44.324Z,22.78
2018-03-17T05:41:12.675Z,26.78
2018-03-17T05:43:40.227Z,23.27
2018-03-17T05:46:08.566Z,25.33
2018-03-17T05:48:36.883Z,25.22
2018-03-17T05:51:05.221Z,27.17
2018-03-17T05:53:33.543Z,28.65
2018-03-17T05:56:01.883Z,28.35
2018-03-17T05:58:30.210Z,27.38
2018-03-17T06:00:58.550Z,25.65
2018-03-17T06:03:26.870Z,24.23
2018-03-17T06:05:55.202Z,25.40
2018-03-17T06:08:23.527Z,26.00
2018-03-17T06:10:51.868Z,26.65
2018-03-17T06:13:20.183Z,23.85
2018-03-17T06:15:48.518Z,27.77
2018-03-17T06:18:16.830Z,28.57
2018-03-17T06:20:45.193Z,27.23
2018-03-17T06:23:13.514Z,27.98
2018-03-17T06:25:41.830Z,22.62
2018-03-17T06:28:10.170Z,30.57
2018-03-17T06:30:38.487Z,26.75
2018-03-17T06:33:06.848Z,27.27
2018-03-17T06:35:35.160Z,24.67
2018-03-17T06:38:03.586Z,26.15
2018-03-17T06:40:31.904Z,23.93
2018-03-17T06:43:00.250Z,30.42
2018-03-17T06:45:28.570Z,29.13
2018-03-17T06:47:56.925Z,30.28
2018-03-17T06:50:25.248Z,30.98
2018-03-17T06:52:53.587Z,30.93
2018-03-17T06:55:21.908Z,28.75
2018-03-17T06:57:50.246Z,30.90
2018-03-17T07:00:18.570Z,30.47
2018-03-17T07:02:46.911Z,32.90
2018-03-17T07:05:15.222Z,28.45
2018-03-17T07:07:43.559Z,34.58
2018-03-17T07:10:11.885Z,30.52
2018-03-17T07:12:40.219Z,29.08
2018-03-17T07:15:08.534Z,28.23
2018-03-17T07:17:36.867Z,28.07
2018-03-17T07:20:05.183Z,33.75
2018-03-17T07:22:33.513Z,34.48
2018-03-17T07:25:01.830Z,45.63
2018-03-17T07:27:30.176Z,34.58
2018-03-17T07:29:58.490Z,29.67
2018-03-17T07:32:26.836Z,68.40
2018-03-17T07:34:55.151Z,32.27
2018-03-17T07:37:23.504Z,33.47
2018-03-17T07:39:51.821Z,25.77
2018-03-17T07:42:20.158Z,35.35
2018-03-17T07:44:48.476Z,43.62
2018-03-17T07:47:16.848Z,36.02
2018-03-17T07:49:45.157Z,27.57
2018-03-17T07:52:13.494Z,38.18
2018-03-17T07:54:41.824Z,31.08
2018-03-17T07:57:10.154Z,25.45
2018-03-17T07:59:38.474Z,38.15
2018-03-17T08:02:06.798Z,34.52
2018-03-17T08:04:35.133Z,41.48
2018-03-17T08:07:03.442Z,29.00
2018-03-17T08:09:31.779Z,30.87
2018-03-17T08:12:00.093Z,38.82
2018-03-17T08:14:28.444Z,35.48
2018-03-17T08:16:56.760Z,23.52
2018-03-17T08:19:25.094Z,49.52
2018-03-17T08:21:53.408Z,33.62
2018-03-17T08:24:21.754Z,20.47
2018-03-17T08:26:50.080Z,22.30
2018-03-17T08:29:18.418Z,27.82
2018-03-17T08:31:46.735Z,31.37
2018-03-17T08:34:15.081Z,26.55
2018-03-17T08:36:43.400Z,19.67
2018-03-17T08:39:11.809Z,23.03
2018-03-17T08:41:40.138Z,21.33
2018-03-17T08:44:08.473Z,21.52
2018-03-17T08:46:36.787Z,19.67
2018-03-17T08:49:04.368Z,22.40
2018-03-17T08:51:32.714Z,17.78
2018-03-17T08:54:01.051Z,21.20
2018-03-17T08:56:28.602Z,21.95
2018-03-17T08:58:56.983Z,17.28
2018-03-17T09:01:25.299Z,18.40
2018-03-17T09:03:53.714Z,20.90
2018-03-17T09:06:22.036Z,19.72
2018-03-17T09:08:50.374Z,19.42
2018-03-17T09:11:18.687Z,19.62
2018-03-17T09:13:47.023Z,24.22
2018-03-17T09:16:15.346Z,22.25
2018-03-17T09:18:43.720Z,20.63
2018-03-17T09:21:12.043Z,18.55
2018-03-17T09:23:40.386Z,19.92
2018-03-17T09:26:08.703Z,23.53
2018-03-17T09:28:37.036Z,17.35
2018-03-17T09:31:05.364Z,21.68
2018-03-17T09:33:33.713Z,20.50
2018-03-17T09:36:02.018Z,22.77
2018-03-17T09:38:30.369Z,22.62
2018-03-17T09:40:58.712Z,21.50
2018-03-17T09:43:27.076Z,18.02
2018-03-17T09:45:55.397Z,20.83
2018-03-17T09:48:23.708Z,24.12
2018-03-17T09:50:52.047Z,25.73
2018-03-17T09:53:20.382Z,22.92
2018-03-17T09:55:48.724Z,23.57
2018-03-17T09:58:17.070Z,26.28
2018-03-17T10:00:45.388Z,18.62
2018-03-17T10:03:13.708Z,25.92
2018-03-17T10:05:42.053Z,17.88
2018-03-17T10:08:10.366Z,21.90
2018-03-17T10:10:38.755Z,23.40
2018-03-17T10:13:07.082Z,28.12
2018-03-17T10:15:35.422Z,23.30
2018-03-17T10:18:03.733Z,24.72
2018-03-17T10:20:32.071Z,22.45
2018-03-17T10:23:00.391Z,24.48
2018-03-17T10:25:28.732Z,24.28
2018-03-17T10:27:57.058Z,36.13
2018-03-17T10:30:25.401Z,23.62
2018-03-17T10:32:53.720Z,23.08
2018-03-17T10:35:22.052Z,21.65
2018-03-17T10:37:50.371Z,20.68
2018-03-17T10:40:18.715Z,23.00
2018-03-17T10:42:47.040Z,25.73
2018-03-17T10:45:15.390Z,23.15
2018-03-17T10:47:43.734Z,23.18
2018-03-17T10:50:12.171Z,23.28
2018-03-17T10:52:40.748Z,22.95
2018-03-17T10:55:09.115Z,22.48
2018-03-17T10:57:37.443Z,18.44
2018-03-17T11:00:05.793Z,19.12
2018-03-17T11:02:39.834Z,24.47
2018-03-17T11:05:08.242Z,19.20
2018-03-17T11:07:36.615Z,25.42
2018-03-17T11:10:04.964Z,20.67
2018-03-17T11:12:33.278Z,18.72
2018-03-17T11:15:01.632Z,19.23
2018-03-17T11:17:29.998Z,18.25
2018-03-17T11:19:58.340Z,20.18
2018-03-17T11:22:26.661Z,20.50
2018-03-17T11:24:55.004Z,16.18
2018-03-17T11:27:22.556Z,17.57
2018-03-17T11:29:50.894Z,23.50
2018-03-17T11:32:19.220Z,20.68
2018-03-17T11:34:47.690Z,20.65
2018-03-17T11:37:16.071Z,25.65
2018-03-17T11:39:44.433Z,18.42
2018-03-17T11:42:12.835Z,21.20
2018-03-17T11:44:41.271Z,21.08
2018-03-17T11:47:09.642Z,25.63
2018-03-17T11:49:37.976Z,24.92
2018-03-17T11:52:06.380Z,21.13
2018-03-17T11:54:34.699Z,20.55
2018-03-17T11:57:03.059Z,20.82
2018-03-17T11:59:31.398Z,22.83
2018-03-17T12:01:59.762Z,20.45
2018-03-17T12:04:28.081Z,24.28
2018-03-17T12:06:56.431Z,16.62
2018-03-17T12:09:24.747Z,25.67
2018-03-17T12:11:53.115Z,82.07
2018-03-17T12:14:21.435Z,26.97
2018-03-17T12:16:49.798Z,24.00
2018-03-17T12:19:18.121Z,29.27
2018-03-17T12:21:46.467Z,29.43
2018-03-17T12:24:14.955Z,20.30
2018-03-17T12:26:43.341Z,18.90
2018-03-17T12:29:11.885Z,19.90
2018-03-17T12:31:40.246Z,19.35
2018-03-17T12:34:09.149Z,19.50
2018-03-17T12:36:37.496Z,20.03
2018-03-17T12:39:05.810Z,20.57
2018-03-17T12:41:34.148Z,25.33
2018-03-17T12:44:02.475Z,18.62
2018-03-17T12:46:30.812Z,22.88
2018-03-17T12:48:59.172Z,22.50
2018-03-17T12:51:27.534Z,20.77
2018-03-17T12:53:55.872Z,23.92
2018-03-17T12:56:24.218Z,20.50
2018-03-17T12:58:52.546Z,21.42
2018-03-17T13:01:20.891Z,20.80
2018-03-17T13:03:49.236Z,19.08
2018-03-17T13:06:17.632Z,20.75
2018-03-17T13:08:46.053Z,20.85
2018-03-17T13:11:14.532Z,19.77
2018-03-17T13:13:42.259Z,25.67
2018-03-17T13:16:10.698Z,20.33
2018-03-17T13:18:39.095Z,20.72
2018-03-17T13:21:07.457Z,22.70
2018-03-17T13:23:35.806Z,20.33
2018-03-17T13:26:04.136Z,22.40
2018-03-17T13:28:32.485Z,25.40
2018-03-17T13:31:00.808Z,17.55
2018-03-17T13:33:29.198Z,21.52
2018-03-17T13:36:09.573Z,16.33
2018-03-17T13:38:37.956Z,23.45
2018-03-17T13:41:06.290Z,20.83
2018-03-17T13:43:34.627Z,22.23
2018-03-17T13:46:02.951Z,26.13
2018-03-17T13:48:31.295Z,22.70
2018-03-17T13:50:59.631Z,19.45
2018-03-17T13:53:27.977Z,21.62
2018-03-17T13:55:56.298Z,22.20
2018-03-17T13:58:24.639Z,20.90
2018-03-17T14:00:52.960Z,20.22
2018-03-17T14:03:21.312Z,23.12
2018-03-17T14:05:49.633Z,18.73
2018-03-17T14:08:17.996Z,27.15
2018-03-17T14:10:46.315Z,23.18
2018-03-17T14:13:14.758Z,19.80
2018-03-17T14:15:43.234Z,19.58
2018-03-17T14:18:11.865Z,26.13
2018-03-17T14:20:40.331Z,23.08
2018-03-17T14:23:08.935Z,21.28
2018-03-17T14:25:37.316Z,25.72
2018-03-17T14:28:05.669Z,30.60
2018-03-17T14:30:34.007Z,20.62
2018-03-17T14:33:02.357Z,21.80
2018-03-17T14:35:30.695Z,23.25
2018-03-17T14:37:59.039Z,17.83
2018-03-17T14:40:27.595Z,19.80
2018-03-17T14:42:55.985Z,24.83
2018-03-17T14:45:24.316Z,22.88
2018-03-17T14:47:52.653Z,23.20
2018-03-17T14:50:20.979Z,22.72
2018-03-17T14:52:49.331Z,18.80
2018-03-17T14:55:17.651Z,22.47
2018-03-17T14:57:46.143Z,20.77
2018-03-17T15:00:14.681Z,22.62
2018-03-17T15:02:43.034Z,23.00
2018-03-17T15:05:11.528Z,20.08
2018-03-17T15:07:40.061Z,22.68
2018-03-17T15:10:09.530Z,20.95
2018-03-17T15:12:37.955Z,22.10
2018-03-17T15:15:06.320Z,21.80
2018-03-17T15:17:34.788Z,23.12
2018-03-17T15:20:03.137Z,23.62
2018-03-17T15:22:31.454Z,20.50
2018-03-17T15:24:59.823Z,24.28
2018-03-17T15:27:28.157Z,20.03
2018-03-17T15:29:56.502Z,23.67
2018-03-17T15:32:24.833Z,26.13
2018-03-17T15:34:53.168Z,20.97
2018-03-17T15:37:21.498Z,27.92
2018-03-17T15:39:49.840Z,26.28
2018-03-17T15:42:18.177Z,21.55
2018-03-17T15:44:46.645Z,23.47
2018-03-17T15:47:15.039Z,25.15
2018-03-17T15:49:43.439Z,22.13
2018-03-17T15:52:11.878Z,26.67
2018-03-17T15:54:40.386Z,25.02
2018-03-17T15:57:09.691Z,25.78
2018-03-17T15:59:38.184Z,25.42
2018-03-17T16:02:06.547Z,25.07
2018-03-17T16:04:34.897Z,22.35
2018-03-17T16:07:03.243Z,21.27
2018-03-17T16:09:31.583Z,27.05
2018-03-17T16:11:59.911Z,23.33
2018-03-17T16:14:28.255Z,24.28
2018-03-17T16:16:56.578Z,27.70
2018-03-17T16:19:24.921Z,25.63
2018-03-17T16:21:53.254Z,25.27
2018-03-17T16:24:21.611Z,19.85
2018-03-17T16:26:49.937Z,21.12
2018-03-17T16:29:18.279Z,24.43
2018-03-17T16:31:46.636Z,31.67
2018-03-17T16:34:14.983Z,23.53
2018-03-17T16:36:43.332Z,23.75
2018-03-17T16:39:11.747Z,30.55
2018-03-17T16:41:40.033Z,22.32
2018-03-17T16:44:08.363Z,17.58
2018-03-17T16:46:36.731Z,21.10
2018-03-17T16:49:05.052Z,23.48
2018-03-17T16:51:33.390Z,22.12
2018-03-17T16:54:01.703Z,22.97
2018-03-17T16:56:30.044Z,20.12
2018-03-17T16:58:57.610Z,18.87
2018-03-17T17:01:25.965Z,18.52
2018-03-17T17:03:54.292Z,21.98
2018-03-17T17:06:22.631Z,18.30
2018-03-17T17:08:50.959Z,23.22
2018-03-17T17:11:19.325Z,24.18
2018-03-17T17:13:47.651Z,20.37
2018-03-17T17:16:15.991Z,25.83
2018-03-17T17:18:44.311Z,23.47
2018-03-17T17:21:12.651Z,25.97
2018-03-17T17:23:40.999Z,22.78
2018-03-17T17:26:09.358Z,21.48
2018-03-17T17:28:37.704Z,24.08
2018-03-17T17:31:06.046Z,22.63
2018-03-17T17:33:34.475Z,20.72
2018-03-17T17:36:02.923Z,23.62
2018-03-17T17:38:30.451Z,23.27
2018-03-17T17:40:58.797Z,23.42
2018-03-17T17:43:27.119Z,26.97
2018-03-17T17:45:55.571Z,19.95
2018-03-17T17:48:23.818Z,21.20
2018-03-17T17:50:52.180Z,23.28
2018-03-17T17:53:20.512Z,26.93
2018-03-17T17:55:48.881Z,24.33
2018-03-17T17:58:17.221Z,24.55
2018-03-17T18:00:45.565Z,19.88
2018-03-17T18:03:13.947Z,22.68
2018-03-17T18:05:42.294Z,22.83
2018-03-17T18:08:10.628Z,22.20
2018-03-17T18:10:38.972Z,21.65
2018-03-17T18:13:07.409Z,24.15
2018-03-17T18:15:35.751Z,51.28
2018-03-17T18:18:04.105Z,43.03
2018-03-17T18:20:32.454Z,59.73
2018-03-17T18:23:00.775Z,26.43
2018-03-17T18:25:29.108Z,44.52
2018-03-17T18:27:57.456Z,36.17
2018-03-17T18:30:25.788Z,26.45
2018-03-17T18:32:54.138Z,49.40
2018-03-17T18:35:22.463Z,23.15
2018-03-17T18:37:50.798Z,28.65
2018-03-17T18:40:19.152Z,33.05
2018-03-17T18:42:47.504Z,26.48
2018-03-17T18:45:15.822Z,21.87
2018-03-17T18:47:44.165Z,20.83
2018-03-17T18:50:12.483Z,22.65
2018-03-17T18:52:40.832Z,22.28
2018-03-17T18:55:09.154Z,24.28
2018-03-17T18:57:37.506Z,18.43
2018-03-17T19:00:05.835Z,20.38
2018-03-17T19:02:34.184Z,26.85
2018-03-17T19:05:02.509Z,24.15
2018-03-17T19:07:30.860Z,20.37
2018-03-17T19:09:59.194Z,19.12
2018-03-17T19:12:27.537Z,22.50
2018-03-17T19:14:55.858Z,23.12
2018-03-17T19:17:24.199Z,18.67
2018-03-17T19:19:52.527Z,25.42
2018-03-17T19:22:21.019Z,16.57
2018-03-17T19:24:49.371Z,19.35
2018-03-17T19:27:17.743Z,22.50
2018-03-17T19:29:46.059Z,27.03
2018-03-17T19:32:14.416Z,23.03
2018-03-17T19:34:42.743Z,17.57
2018-03-17T19:37:11.079Z,22.63
2018-03-17T19:39:39.421Z,24.22
2018-03-17T19:42:07.763Z,21.00
2018-03-17T19:44:36.114Z,21.13
2018-03-17T19:47:04.460Z,21.17
2018-03-17T19:49:32.824Z,20.13
2018-03-17T19:52:01.177Z,21.00
2018-03-17T19:54:29.490Z,19.78
2018-03-17T19:56:57.841Z,25.43
2018-03-17T19:59:26.163Z,24.03
2018-03-17T20:01:54.513Z,20.27
2018-03-17T20:04:22.852Z,28.60
2018-03-17T20:06:51.208Z,22.42
2018-03-17T20:09:19.528Z,23.53
2018-03-17T20:11:47.875Z,25.17
2018-03-17T20:14:16.212Z,23.68
2018-03-17T20:16:44.529Z,24.55
2018-03-17T20:19:12.882Z,23.00
2018-03-17T20:21:41.208Z,23.08
2018-03-17T20:24:09.567Z,22.45
2018-03-17T20:26:37.913Z,20.35
2018-03-17T20:29:06.259Z,18.07
2018-03-17T20:31:34.577Z,20.92
2018-03-17T20:34:02.927Z,26.60
2018-03-17T20:36:31.266Z,19.03
2018-03-17T20:38:59.664Z,20.93
2018-03-17T20:41:28.004Z,22.08
2018-03-17T20:43:56.346Z,24.67
2018-03-17T20:46:24.718Z,22.35
2018-03-17T20:48:53.091Z,21.47
2018-03-17T20:51:21.469Z,21.50
2018-03-17T20:53:49.862Z,20.32
2018-03-17T20:56:18.179Z,22.24
2018-03-17T20:58:46.547Z,19.60
2018-03-17T21:01:14.862Z,21.77
2018-03-17T21:03:43.208Z,20.97
2018-03-17T21:06:11.540Z,22.50
2018-03-17T21:08:39.893Z,23.26
2018-03-17T21:11:08.214Z,24.77
2018-03-17T21:13:36.565Z,18.20
2018-03-17T21:16:04.919Z,20.42
2018-03-17T21:18:33.255Z,22.83
2018-03-17T21:21:01.576Z,21.35
2018-03-17T21:23:29.916Z,21.18
2018-03-17T21:25:58.239Z,19.77
2018-03-17T21:28:26.587Z,23.05
2018-03-17T21:30:55.047Z,22.52
2018-03-17T21:33:23.386Z,22.25
2018-03-17T21:35:51.701Z,20.75
2018-03-17T21:38:20.052Z,20.90
2018-03-17T21:40:48.375Z,20.30
2018-03-17T21:43:16.727Z,24.65
2018-03-17T21:45:45.066Z,21.47
2018-03-17T21:48:13.436Z,22.60
2018-03-17T21:50:41.767Z,24.70
2018-03-17T21:53:10.114Z,22.23
2018-03-17T21:55:38.449Z,18.72
2018-03-17T21:58:06.779Z,18.65
2018-03-17T22:00:35.128Z,24.08
2018-03-17T22:03:03.447Z,22.92
2018-03-17T22:05:31.784Z,19.57
2018-03-17T22:08:00.099Z,23.97
2018-03-17T22:10:28.438Z,27.25
2018-03-17T22:12:55.991Z,23.20
2018-03-17T22:15:24.329Z,21.92
2018-03-17T22:17:52.644Z,26.12
2018-03-17T22:20:20.991Z,21.58
2018-03-17T22:22:49.371Z,19.32
2018-03-17T22:25:17.681Z,17.07
2018-03-17T22:27:46.012Z,26.03
2018-03-17T22:30:14.360Z,26.20
2018-03-17T22:32:42.686Z,19.72
2018-03-17T22:35:10.255Z,21.45
2018-03-17T22:37:38.587Z,22.23
2018-03-17T22:40:06.924Z,23.47
2018-03-17T22:42:35.243Z,26.80
2018-03-17T22:45:03.584Z,29.85
2018-03-17T22:47:31.911Z,27.67
2018-03-17T22:50:00.259Z,20.55
2018-03-17T22:52:28.593Z,23.92
2018-03-17T22:54:56.969Z,24.22
2018-03-17T22:57:25.293Z,26.05
2018-03-17T22:59:53.631Z,29.60
2018-03-17T23:02:21.950Z,26.07
2018-03-17T23:04:50.299Z,22.85
2018-03-17T23:07:18.617Z,24.63
2018-03-17T23:09:46.951Z,24.83
2018-03-17T23:12:15.271Z,19.47
2018-03-17T23:14:43.619Z,24.18
2018-03-17T23:17:11.946Z,23.77
2018-03-17T23:19:40.295Z,26.07
2018-03-17T23:22:08.963Z,23.32
2018-03-17T23:24:37.308Z,18.63
2018-03-17T23:27:05.635Z,24.40
2018-03-17T23:29:33.986Z,28.50
2018-03-17T23:32:02.324Z,23.77
2018-03-17T23:34:30.667Z,20.88
2018-03-17T23:36:58.982Z,20.88
2018-03-17T23:39:27.345Z,23.90
2018-03-17T23:41:55.665Z,23.30
2018-03-17T23:44:23.988Z,24.97
2018-03-17T23:46:51.567Z,25.07
2018-03-17T23:49:19.886Z,24.30
2018-03-17T23:51:48.258Z,20.25
2018-03-17T23:54:16.589Z,20.83
2018-03-17T23:56:44.937Z,17.95
2018-03-17T23:59:13.267Z,20.62
